RORT(METAR)
02/20 16:00
RORT 200700Z 20013KT CAVOK 27/23 Q1018 RMK A3008=
戻る
トップページへ戻る
IMOC Co,.Ltd.